sensor_id;sensor_type;location;lat;lon;timestamp;temperature;humidity
8043;DHT22;4064;48.132;11.366;2023-01-08T00:02:17;1.40;99.90
8043;DHT22;4064;48.132;11.366;2023-01-08T00:04:42;1.50;99.90
8043;DHT22;4064;48.132;11.366;2023-01-08T00:07:09;1.60;99.90
8043;DHT22;4064;48.132;11.366;2023-01-08T00:09:34;1.60;99.90
8043;DHT22;4064;48.132;11.366;2023-01-08T00:12:00;1.60;99.90
8043;DHT22;4064;48.132;11.366;2023-01-08T00:14:26;1.60;99.90
8043;DHT22;4064;48.132;11.366;2023-01-08T00:16:52;1.60;99.90
8043;DHT22;4064;48.132;11.366;2023-01-08T00:19:17;1.60;99.90
8043;DHT22;4064;48.132;11.366;2023-01-08T00:22:20;1.60;99.90
8043;DHT22;4064;48.132;11.366;2023-01-08T00:24:47;1.60;99.90
8043;DHT22;4064;48.132;11.366;2023-01-08T00:27:13;1.60;99.90
8043;DHT22;4064;48.132;11.366;2023-01-08T00:29:39;1.60;99.90
8043;DHT22;4064;48.132;11.366;2023-01-08T00:32:05;1.60;99.90
8043;DHT22;4064;48.132;11.366;2023-01-08T00:34:30;1.60;99.90
8043;DHT22;4064;48.132;11.366;2023-01-08T00:36:56;1.60;99.90
8043;DHT22;4064;48.132;11.366;2023-01-08T00:39:22;1.60;99.90
8043;DHT22;4064;48.132;11.366;2023-01-08T00:41:48;1.60;99.90
8043;DHT22;4064;48.132;11.366;2023-01-08T00:44:14;1.60;99.90
8043;DHT22;4064;48.132;11.366;2023-01-08T00:46:40;1.60;99.90
8043;DHT22;4064;48.132;11.366;2023-01-08T00:49:05;1.60;99.90
8043;DHT22;4064;48.132;11.366;2023-01-08T00:51:31;1.60;99.90
8043;DHT22;4064;48.132;11.366;2023-01-08T00:53:57;1.50;99.90
8043;DHT22;4064;48.132;11.366;2023-01-08T00:56:23;1.50;99.90
8043;DHT22;4064;48.132;11.366;2023-01-08T00:58:48;1.60;99.90
8043;DHT22;4064;48.132;11.366;2023-01-08T01:01:14;1.50;99.90
8043;DHT22;4064;48.132;11.366;2023-01-08T01:03:40;1.50;99.90
8043;DHT22;4064;48.132;11.366;2023-01-08T01:06:07;1.40;99.90
8043;DHT22;4064;48.132;11.366;2023-01-08T01:08:33;1.40;99.90
8043;DHT22;4064;48.132;11.366;2023-01-08T01:10:59;1.40;99.90
8043;DHT22;4064;48.132;11.366;2023-01-08T01:13:25;1.40;99.90
8043;DHT22;4064;48.132;11.366;2023-01-08T01:16:00;1.30;99.90
8043;DHT22;4064;48.132;11.366;2023-01-08T01:18:27;1.30;99.90
8043;DHT22;4064;48.132;11.366;2023-01-08T01:20:53;1.30;99.90
8043;DHT22;4064;48.132;11.366;2023-01-08T01:23:19;1.30;99.90
8043;DHT22;4064;48.132;11.366;2023-01-08T01:25:44;1.20;99.90
8043;DHT22;4064;48.132;11.366;2023-01-08T01:28:10;1.20;99.90
8043;DHT22;4064;48.132;11.366;2023-01-08T01:30:36;1.10;99.90
8043;DHT22;4064;48.132;11.366;2023-01-08T01:33:01;1.10;99.90
8043;DHT22;4064;48.132;11.366;2023-01-08T01:35:27;1.20;99.90
8043;DHT22;4064;48.132;11.366;2023-01-08T01:37:53;1.10;99.90
8043;DHT22;4064;48.132;11.366;2023-01-08T01:40:18;1.10;99.90
8043;DHT22;4064;48.132;11.366;2023-01-08T01:42:44;1.10;99.90
8043;DHT22;4064;48.132;11.366;2023-01-08T01:47:51;1.10;99.90
8043;DHT22;4064;48.132;11.366;2023-01-08T01:50:26;1.10;99.90
8043;DHT22;4064;48.132;11.366;2023-01-08T01:53:22;1.10;99.90
8043;DHT22;4064;48.132;11.366;2023-01-08T01:55:49;1.20;99.90
8043;DHT22;4064;48.132;11.366;2023-01-08T01:58:20;1.30;99.90
8043;DHT22;4064;48.132;11.366;2023-01-08T02:00:47;1.20;99.90
8043;DHT22;4064;48.132;11.366;2023-01-08T02:03:14;1.20;99.90
8043;DHT22;4064;48.132;11.366;2023-01-08T02:08:24;1.20;99.90
8043;DHT22;4064;48.132;11.366;2023-01-08T02:10:57;1.20;99.90
8043;DHT22;4064;48.132;11.366;2023-01-08T02:13:28;1.20;99.90
8043;DHT22;4064;48.132;11.366;2023-01-08T02:16:00;1.20;99.90
8043;DHT22;4064;48.132;11.366;2023-01-08T02:18:37;1.20;99.90
8043;DHT22;4064;48.132;11.366;2023-01-08T02:23:52;1.20;99.90
8043;DHT22;4064;48.132;11.366;2023-01-08T02:29:14;1.20;99.90
8043;DHT22;4064;48.132;11.366;2023-01-08T02:31:42;1.20;99.90
8043;DHT22;4064;48.132;11.366;2023-01-08T02:34:10;1.20;99.90
8043;DHT22;4064;48.132;11.366;2023-01-08T02:36:40;1.20;99.90
8043;DHT22;4064;48.132;11.366;2023-01-08T02:44:05;1.10;99.90
8043;DHT22;4064;48.132;11.366;2023-01-08T02:46:33;1.20;99.90
8043;DHT22;4064;48.132;11.366;2023-01-08T02:49:04;1.10;99.90
8043;DHT22;4064;48.132;11.366;2023-01-08T02:51:36;1.20;99.90
8043;DHT22;4064;48.132;11.366;2023-01-08T02:54:08;1.10;99.90
8043;DHT22;4064;48.132;11.366;2023-01-08T02:56:41;1.10;99.90
8043;DHT22;4064;48.132;11.366;2023-01-08T02:59:10;1.10;99.90
8043;DHT22;4064;48.132;11.366;2023-01-08T03:01:37;1.10;99.90
8043;DHT22;4064;48.132;11.366;2023-01-08T03:04:13;1.00;99.90
8043;DHT22;4064;48.132;11.366;2023-01-08T03:06:39;1.00;99.90
8043;DHT22;4064;48.132;11.366;2023-01-08T03:09:05;1.00;99.90
8043;DHT22;4064;48.132;11.366;2023-01-08T03:11:56;1.00;99.90
8043;DHT22;4064;48.132;11.366;2023-01-08T03:17:29;1.00;99.90
8043;DHT22;4064;48.132;11.366;2023-01-08T03:20:02;1.00;99.90
8043;DHT22;4064;48.132;11.366;2023-01-08T03:22:34;1.00;99.90
8043;DHT22;4064;48.132;11.366;2023-01-08T03:25:01;1.00;99.90
8043;DHT22;4064;48.132;11.366;2023-01-08T03:27:31;1.00;99.90
8043;DHT22;4064;48.132;11.366;2023-01-08T03:29:58;1.00;99.90
8043;DHT22;4064;48.132;11.366;2023-01-08T03:32:26;1.00;99.90
8043;DHT22;4064;48.132;11.366;2023-01-08T03:34:55;1.00;99.90
8043;DHT22;4064;48.132;11.366;2023-01-08T03:37:27;0.90;99.90
8043;DHT22;4064;48.132;11.366;2023-01-08T03:42:30;0.90;99.90
8043;DHT22;4064;48.132;11.366;2023-01-08T03:45:00;0.90;99.90
8043;DHT22;4064;48.132;11.366;2023-01-08T03:47:30;0.90;99.90
8043;DHT22;4064;48.132;11.366;2023-01-08T03:50:00;0.90;99.90
8043;DHT22;4064;48.132;11.366;2023-01-08T03:52:29;0.90;99.90
8043;DHT22;4064;48.132;11.366;2023-01-08T03:54:55;0.90;99.90
8043;DHT22;4064;48.132;11.366;2023-01-08T03:57:21;0.90;99.90
8043;DHT22;4064;48.132;11.366;2023-01-08T03:59:46;0.90;99.90
8043;DHT22;4064;48.132;11.366;2023-01-08T04:02:12;0.90;99.90
8043;DHT22;4064;48.132;11.366;2023-01-08T04:04:38;0.90;99.90
8043;DHT22;4064;48.132;11.366;2023-01-08T04:07:04;0.80;99.90
8043;DHT22;4064;48.132;11.366;2023-01-08T04:09:30;0.80;99.90
8043;DHT22;4064;48.132;11.366;2023-01-08T04:11:55;0.80;99.90
8043;DHT22;4064;48.132;11.366;2023-01-08T04:14:21;0.80;99.90
8043;DHT22;4064;48.132;11.366;2023-01-08T04:16:47;0.80;99.90
8043;DHT22;4064;48.132;11.366;2023-01-08T04:19:12;0.80;99.90
8043;DHT22;4064;48.132;11.366;2023-01-08T04:21:38;0.80;99.90
8043;DHT22;4064;48.132;11.366;2023-01-08T04:24:04;0.90;99.90
8043;DHT22;4064;48.132;11.366;2023-01-08T04:26:31;0.90;99.90
8043;DHT22;4064;48.132;11.366;2023-01-08T04:28:56;0.90;99.90
8043;DHT22;4064;48.132;11.366;2023-01-08T04:31:22;0.90;99.90
8043;DHT22;4064;48.132;11.366;2023-01-08T04:33:48;0.90;99.90
8043;DHT22;4064;48.132;11.366;2023-01-08T04:36:13;0.90;99.90
8043;DHT22;4064;48.132;11.366;2023-01-08T04:38:40;0.90;99.90
8043;DHT22;4064;48.132;11.366;2023-01-08T04:41:05;0.90;99.90
8043;DHT22;4064;48.132;11.366;2023-01-08T04:43:31;0.90;99.90
8043;DHT22;4064;48.132;11.366;2023-01-08T04:45:58;0.80;99.90
8043;DHT22;4064;48.132;11.366;2023-01-08T04:48:24;0.90;99.90
8043;DHT22;4064;48.132;11.366;2023-01-08T04:50:49;0.90;99.90
8043;DHT22;4064;48.132;11.366;2023-01-08T04:53:16;0.90;99.90
8043;DHT22;4064;48.132;11.366;2023-01-08T04:55:41;0.90;99.90
8043;DHT22;4064;48.132;11.366;2023-01-08T04:58:07;0.90;99.90
8043;DHT22;4064;48.132;11.366;2023-01-08T05:00:33;0.90;99.90
8043;DHT22;4064;48.132;11.366;2023-01-08T05:02:59;0.90;99.90
8043;DHT22;4064;48.132;11.366;2023-01-08T05:05:24;0.90;99.90
8043;DHT22;4064;48.132;11.366;2023-01-08T05:07:50;1.00;99.90
8043;DHT22;4064;48.132;11.366;2023-01-08T05:10:16;1.00;99.90
8043;DHT22;4064;48.132;11.366;2023-01-08T05:12:41;1.00;99.90
8043;DHT22;4064;48.132;11.366;2023-01-08T05:15:07;0.90;99.90
8043;DHT22;4064;48.132;11.366;2023-01-08T05:17:33;1.00;99.90
8043;DHT22;4064;48.132;11.366;2023-01-08T05:19:59;1.00;99.90
8043;DHT22;4064;48.132;11.366;2023-01-08T05:22:24;1.10;99.90
8043;DHT22;4064;48.132;11.366;2023-01-08T05:24:50;1.10;99.90
8043;DHT22;4064;48.132;11.366;2023-01-08T05:27:16;1.10;99.90
8043;DHT22;4064;48.132;11.366;2023-01-08T05:29:41;1.00;99.90
8043;DHT22;4064;48.132;11.366;2023-01-08T05:32:15;1.00;99.90
8043;DHT22;4064;48.132;11.366;2023-01-08T05:34:41;1.00;99.90
8043;DHT22;4064;48.132;11.366;2023-01-08T05:37:06;1.00;99.90
8043;DHT22;4064;48.132;11.366;2023-01-08T05:39:32;1.00;99.90
8043;DHT22;4064;48.132;11.366;2023-01-08T05:41:58;0.90;99.90
8043;DHT22;4064;48.132;11.366;2023-01-08T05:44:23;0.90;99.90
8043;DHT22;4064;48.132;11.366;2023-01-08T05:46:49;0.90;99.90
8043;DHT22;4064;48.132;11.366;2023-01-08T05:49:17;0.90;99.90
8043;DHT22;4064;48.132;11.366;2023-01-08T05:51:42;0.90;99.90
8043;DHT22;4064;48.132;11.366;2023-01-08T05:54:08;1.00;99.90
8043;DHT22;4064;48.132;11.366;2023-01-08T05:56:33;1.00;99.90
8043;DHT22;4064;48.132;11.366;2023-01-08T05:58:59;1.10;99.90
8043;DHT22;4064;48.132;11.366;2023-01-08T06:01:25;1.10;99.90
8043;DHT22;4064;48.132;11.366;2023-01-08T06:03:54;1.10;99.90
8043;DHT22;4064;48.132;11.366;2023-01-08T06:06:20;1.20;99.90
8043;DHT22;4064;48.132;11.366;2023-01-08T06:08:46;1.20;99.90
8043;DHT22;4064;48.132;11.366;2023-01-08T06:11:11;1.20;99.90
8043;DHT22;4064;48.132;11.366;2023-01-08T06:13:41;1.30;99.90
8043;DHT22;4064;48.132;11.366;2023-01-08T06:16:07;1.20;99.90
8043;DHT22;4064;48.132;11.366;2023-01-08T06:18:33;1.20;99.90
8043;DHT22;4064;48.132;11.366;2023-01-08T06:20:58;1.20;99.90
8043;DHT22;4064;48.132;11.366;2023-01-08T06:23:24;1.20;99.90
8043;DHT22;4064;48.132;11.366;2023-01-08T06:25:54;1.30;99.90
8043;DHT22;4064;48.132;11.366;2023-01-08T06:28:20;1.30;99.90
8043;DHT22;4064;48.132;11.366;2023-01-08T06:30:45;1.30;99.90
8043;DHT22;4064;48.132;11.366;2023-01-08T06:33:11;1.30;99.90
8043;DHT22;4064;48.132;11.366;2023-01-08T06:35:37;1.30;99.90
8043;DHT22;4064;48.132;11.366;2023-01-08T06:38:02;1.40;99.90
8043;DHT22;4064;48.132;11.366;2023-01-08T06:40:28;1.40;99.90
8043;DHT22;4064;48.132;11.366;2023-01-08T06:42:54;1.40;99.90
8043;DHT22;4064;48.132;11.366;2023-01-08T06:45:19;1.30;99.90
8043;DHT22;4064;48.132;11.366;2023-01-08T06:47:45;1.30;99.90
8043;DHT22;4064;48.132;11.366;2023-01-08T06:50:11;1.30;99.90
8043;DHT22;4064;48.132;11.366;2023-01-08T06:52:37;1.20;99.90
8043;DHT22;4064;48.132;11.366;2023-01-08T06:55:04;1.20;99.90
8043;DHT22;4064;48.132;11.366;2023-01-08T06:57:30;1.30;99.90
8043;DHT22;4064;48.132;11.366;2023-01-08T06:59:56;1.30;99.90
8043;DHT22;4064;48.132;11.366;2023-01-08T07:02:22;1.40;99.90
8043;DHT22;4064;48.132;11.366;2023-01-08T07:04:47;1.40;99.90
8043;DHT22;4064;48.132;11.366;2023-01-08T07:07:14;1.40;99.90
8043;DHT22;4064;48.132;11.366;2023-01-08T07:09:41;1.50;99.90
8043;DHT22;4064;48.132;11.366;2023-01-08T07:12:12;1.50;99.90
8043;DHT22;4064;48.132;11.366;2023-01-08T07:14:39;1.60;99.90
8043;DHT22;4064;48.132;11.366;2023-01-08T07:17:04;1.60;99.90
8043;DHT22;4064;48.132;11.366;2023-01-08T07:19:30;1.60;99.90
8043;DHT22;4064;48.132;11.366;2023-01-08T07:21:56;1.70;99.90
8043;DHT22;4064;48.132;11.366;2023-01-08T07:24:21;1.80;99.90
8043;DHT22;4064;48.132;11.366;2023-01-08T07:26:47;1.90;99.90
8043;DHT22;4064;48.132;11.366;2023-01-08T07:29:12;1.90;99.90
8043;DHT22;4064;48.132;11.366;2023-01-08T07:31:38;1.90;99.90
8043;DHT22;4064;48.132;11.366;2023-01-08T07:34:04;1.90;99.90
8043;DHT22;4064;48.132;11.366;2023-01-08T07:36:29;1.90;99.90
8043;DHT22;4064;48.132;11.366;2023-01-08T07:38:55;2.00;99.90
8043;DHT22;4064;48.132;11.366;2023-01-08T07:41:20;2.00;99.90
8043;DHT22;4064;48.132;11.366;2023-01-08T07:43:47;2.00;99.90
8043;DHT22;4064;48.132;11.366;2023-01-08T07:46:13;2.10;99.90
8043;DHT22;4064;48.132;11.366;2023-01-08T07:48:39;2.10;99.90
8043;DHT22;4064;48.132;11.366;2023-01-08T07:51:06;2.10;99.90
8043;DHT22;4064;48.132;11.366;2023-01-08T07:53:33;2.20;99.90
8043;DHT22;4064;48.132;11.366;2023-01-08T07:56:04;2.20;99.90
8043;DHT22;4064;48.132;11.366;2023-01-08T07:58:30;2.20;99.90
8043;DHT22;4064;48.132;11.366;2023-01-08T08:00:57;2.30;99.90
8043;DHT22;4064;48.132;11.366;2023-01-08T08:03:23;2.40;99.90
8043;DHT22;4064;48.132;11.366;2023-01-08T08:05:49;2.40;99.90
8043;DHT22;4064;48.132;11.366;2023-01-08T08:08:15;2.40;99.90
8043;DHT22;4064;48.132;11.366;2023-01-08T08:10:41;2.40;99.90
8043;DHT22;4064;48.132;11.366;2023-01-08T08:13:07;2.50;99.90
8043;DHT22;4064;48.132;11.366;2023-01-08T08:15:34;2.50;99.90
8043;DHT22;4064;48.132;11.366;2023-01-08T08:18:00;2.60;99.90
8043;DHT22;4064;48.132;11.366;2023-01-08T08:20:26;2.70;99.90
8043;DHT22;4064;48.132;11.366;2023-01-08T08:22:52;2.70;99.90
8043;DHT22;4064;48.132;11.366;2023-01-08T08:25:20;2.80;99.90
8043;DHT22;4064;48.132;11.366;2023-01-08T08:27:46;2.90;99.90
8043;DHT22;4064;48.132;11.366;2023-01-08T08:30:12;3.00;99.90
8043;DHT22;4064;48.132;11.366;2023-01-08T08:32:37;3.10;99.90
8043;DHT22;4064;48.132;11.366;2023-01-08T08:35:04;3.20;99.90
8043;DHT22;4064;48.132;11.366;2023-01-08T08:37:30;3.30;99.90
8043;DHT22;4064;48.132;11.366;2023-01-08T08:39:56;3.40;99.90
8043;DHT22;4064;48.132;11.366;2023-01-08T08:42:21;3.50;99.90
8043;DHT22;4064;48.132;11.366;2023-01-08T08:44:47;3.60;99.90
8043;DHT22;4064;48.132;11.366;2023-01-08T08:47:13;3.70;99.90
8043;DHT22;4064;48.132;11.366;2023-01-08T08:49:38;3.80;99.90
8043;DHT22;4064;48.132;11.366;2023-01-08T08:52:04;3.90;99.90
8043;DHT22;4064;48.132;11.366;2023-01-08T08:54:30;4.00;99.90
8043;DHT22;4064;48.132;11.366;2023-01-08T08:56:56;4.10;99.90
8043;DHT22;4064;48.132;11.366;2023-01-08T08:59:21;4.20;99.90
8043;DHT22;4064;48.132;11.366;2023-01-08T09:01:47;4.30;99.90
8043;DHT22;4064;48.132;11.366;2023-01-08T09:04:13;4.50;99.90
8043;DHT22;4064;48.132;11.366;2023-01-08T09:06:38;4.50;99.90
8043;DHT22;4064;48.132;11.366;2023-01-08T09:09:04;4.70;99.90
8043;DHT22;4064;48.132;11.366;2023-01-08T09:11:30;4.90;99.90
8043;DHT22;4064;48.132;11.366;2023-01-08T09:13:56;5.00;99.90
8043;DHT22;4064;48.132;11.366;2023-01-08T09:16:21;5.10;99.90
8043;DHT22;4064;48.132;11.366;2023-01-08T09:18:47;5.10;99.90
8043;DHT22;4064;48.132;11.366;2023-01-08T09:21:14;5.10;99.90
8043;DHT22;4064;48.132;11.366;2023-01-08T09:23:39;5.10;99.90
8043;DHT22;4064;48.132;11.366;2023-01-08T09:26:05;5.00;99.90
8043;DHT22;4064;48.132;11.366;2023-01-08T09:28:31;5.00;99.90
8043;DHT22;4064;48.132;11.366;2023-01-08T09:31:01;5.10;99.90
8043;DHT22;4064;48.132;11.366;2023-01-08T09:33:27;5.20;99.90
8043;DHT22;4064;48.132;11.366;2023-01-08T09:35:53;5.30;99.90
8043;DHT22;4064;48.132;11.366;2023-01-08T09:38:18;5.50;99.90
8043;DHT22;4064;48.132;11.366;2023-01-08T09:40:57;5.80;99.90
8043;DHT22;4064;48.132;11.366;2023-01-08T09:43:25;6.20;99.90
8043;DHT22;4064;48.132;11.366;2023-01-08T09:45:55;7.10;99.90
8043;DHT22;4064;48.132;11.366;2023-01-08T09:48:26;7.70;99.90
8043;DHT22;4064;48.132;11.366;2023-01-08T09:50:52;8.00;99.90
8043;DHT22;4064;48.132;11.366;2023-01-08T09:53:18;8.20;99.90
8043;DHT22;4064;48.132;11.366;2023-01-08T09:55:52;8.30;99.90
8043;DHT22;4064;48.132;11.366;2023-01-08T09:58:36;8.50;99.90
8043;DHT22;4064;48.132;11.366;2023-01-08T10:01:03;8.80;99.90
8043;DHT22;4064;48.132;11.366;2023-01-08T10:06:10;9.50;99.90
8043;DHT22;4064;48.132;11.366;2023-01-08T10:08:36;9.40;99.90
8043;DHT22;4064;48.132;11.366;2023-01-08T10:11:03;9.60;99.90
8043;DHT22;4064;48.132;11.366;2023-01-08T10:13:30;9.60;99.90
8043;DHT22;4064;48.132;11.366;2023-01-08T10:15:56;9.80;99.90
8043;DHT22;4064;48.132;11.366;2023-01-08T10:18:24;9.90;99.90
8043;DHT22;4064;48.132;11.366;2023-01-08T10:20:52;10.00;99.30
8043;DHT22;4064;48.132;11.366;2023-01-08T10:23:19;10.20;99.20
8043;DHT22;4064;48.132;11.366;2023-01-08T10:25:59;10.20;98.20
8043;DHT22;4064;48.132;11.366;2023-01-08T10:28:28;10.10;97.20
8043;DHT22;4064;48.132;11.366;2023-01-08T10:30:59;9.90;97.40
8043;DHT22;4064;48.132;11.366;2023-01-08T10:33:38;9.80;97.40
8043;DHT22;4064;48.132;11.366;2023-01-08T10:36:10;9.60;97.00
8043;DHT22;4064;48.132;11.366;2023-01-08T10:38:41;9.40;97.20
8043;DHT22;4064;48.132;11.366;2023-01-08T10:41:13;9.30;97.70
8043;DHT22;4064;48.132;11.366;2023-01-08T10:43:52;9.30;97.70
8043;DHT22;4064;48.132;11.366;2023-01-08T10:46:29;9.10;97.50
8043;DHT22;4064;48.132;11.366;2023-01-08T10:48:57;8.90;97.80
8043;DHT22;4064;48.132;11.366;2023-01-08T10:51:28;8.70;97.60
8043;DHT22;4064;48.132;11.366;2023-01-08T10:53:58;8.50;97.80
8043;DHT22;4064;48.132;11.366;2023-01-08T10:56:29;8.20;98.10
8043;DHT22;4064;48.132;11.366;2023-01-08T10:58:55;8.00;97.90
8043;DHT22;4064;48.132;11.366;2023-01-08T11:01:26;7.80;98.20
8043;DHT22;4064;48.132;11.366;2023-01-08T11:04:00;7.60;98.10
8043;DHT22;4064;48.132;11.366;2023-01-08T11:06:28;7.50;98.40
8043;DHT22;4064;48.132;11.366;2023-01-08T11:08:57;7.40;98.80
8043;DHT22;4064;48.132;11.366;2023-01-08T11:11:23;7.40;98.90
8043;DHT22;4064;48.132;11.366;2023-01-08T11:13:58;7.40;98.90
8043;DHT22;4064;48.132;11.366;2023-01-08T11:16:39;7.40;99.20
8043;DHT22;4064;48.132;11.366;2023-01-08T11:19:15;7.40;99.10
8043;DHT22;4064;48.132;11.366;2023-01-08T11:21:41;7.40;99.40
8043;DHT22;4064;48.132;11.366;2023-01-08T11:24:36;7.40;99.20
8043;DHT22;4064;48.132;11.366;2023-01-08T11:30:02;7.60;99.10
8043;DHT22;4064;48.132;11.366;2023-01-08T11:32:43;7.70;98.80
8043;DHT22;4064;48.132;11.366;2023-01-08T11:35:42;7.80;98.90
8043;DHT22;4064;48.132;11.366;2023-01-08T11:38:10;7.90;98.60
8043;DHT22;4064;48.132;11.366;2023-01-08T11:40:47;8.00;98.20
8043;DHT22;4064;48.132;11.366;2023-01-08T11:49:18;8.20;98.10
8043;DHT22;4064;48.132;11.366;2023-01-08T12:04:07;8.20;97.80
8043;DHT22;4064;48.132;11.366;2023-01-08T12:17:44;8.50;98.20
8043;DHT22;4064;48.132;11.366;2023-01-08T12:20:31;8.50;98.00
8043;DHT22;4064;48.132;11.366;2023-01-08T12:23:24;8.50;98.10
8043;DHT22;4064;48.132;11.366;2023-01-08T12:26:05;8.50;98.20
8043;DHT22;4064;48.132;11.366;2023-01-08T12:33:59;8.50;98.10
8043;DHT22;4064;48.132;11.366;2023-01-08T12:36:34;8.50;98.30
8043;DHT22;4064;48.132;11.366;2023-01-08T12:39:09;8.50;98.30
8043;DHT22;4064;48.132;11.366;2023-01-08T12:41:38;8.40;98.10
8043;DHT22;4064;48.132;11.366;2023-01-08T12:44:09;8.40;97.90
8043;DHT22;4064;48.132;11.366;2023-01-08T12:46:41;8.30;97.90
8043;DHT22;4064;48.132;11.366;2023-01-08T12:49:10;8.30;98.10
8043;DHT22;4064;48.132;11.366;2023-01-08T12:52:00;8.30;98.10
8043;DHT22;4064;48.132;11.366;2023-01-08T12:57:37;8.20;98.20
8043;DHT22;4064;48.132;11.366;2023-01-08T13:00:28;8.20;98.10
8043;DHT22;4064;48.132;11.366;2023-01-08T13:03:00;8.10;98.20
8043;DHT22;4064;48.132;11.366;2023-01-08T13:07:57;8.10;98.20
8043;DHT22;4064;48.132;11.366;2023-01-08T13:10:36;8.10;97.80
8043;DHT22;4064;48.132;11.366;2023-01-08T13:13:07;8.00;97.80
8043;DHT22;4064;48.132;11.366;2023-01-08T13:15:47;8.10;98.00
8043;DHT22;4064;48.132;11.366;2023-01-08T13:18:18;8.00;97.70
8043;DHT22;4064;48.132;11.366;2023-01-08T13:20:59;8.00;97.80
8043;DHT22;4064;48.132;11.366;2023-01-08T13:23:30;8.00;97.90
8043;DHT22;4064;48.132;11.366;2023-01-08T13:26:01;7.90;98.00
8043;DHT22;4064;48.132;11.366;2023-01-08T13:28:37;7.90;97.90
8043;DHT22;4064;48.132;11.366;2023-01-08T13:33:45;7.90;98.40
8043;DHT22;4064;48.132;11.366;2023-01-08T13:38:41;7.90;98.40
8043;DHT22;4064;48.132;11.366;2023-01-08T13:41:31;7.90;98.50
8043;DHT22;4064;48.132;11.366;2023-01-08T13:44:03;7.80;98.90
8043;DHT22;4064;48.132;11.366;2023-01-08T13:46:32;7.80;99.10
8043;DHT22;4064;48.132;11.366;2023-01-08T13:49:04;7.80;98.60
8043;DHT22;4064;48.132;11.366;2023-01-08T13:51:40;7.80;98.40
8043;DHT22;4064;48.132;11.366;2023-01-08T13:54:33;7.80;98.20
8043;DHT22;4064;48.132;11.366;2023-01-08T13:57:04;7.70;97.90
8043;DHT22;4064;48.132;11.366;2023-01-08T13:59:53;7.70;97.90
8043;DHT22;4064;48.132;11.366;2023-01-08T14:02:31;7.70;98.10
8043;DHT22;4064;48.132;11.366;2023-01-08T14:04:59;7.70;98.40
8043;DHT22;4064;48.132;11.366;2023-01-08T14:07:26;7.70;98.50
8043;DHT22;4064;48.132;11.366;2023-01-08T14:09:52;7.70;98.40
8043;DHT22;4064;48.132;11.366;2023-01-08T14:12:20;7.70;98.20
8043;DHT22;4064;48.132;11.366;2023-01-08T14:14:55;7.70;98.30
8043;DHT22;4064;48.132;11.366;2023-01-08T14:17:30;7.80;98.00
8043;DHT22;4064;48.132;11.366;2023-01-08T14:19:57;7.80;97.60
8043;DHT22;4064;48.132;11.366;2023-01-08T14:22:28;7.80;97.70
8043;DHT22;4064;48.132;11.366;2023-01-08T14:24:58;7.90;98.10
8043;DHT22;4064;48.132;11.366;2023-01-08T14:27:27;7.90;98.10
8043;DHT22;4064;48.132;11.366;2023-01-08T14:29:54;7.90;98.40
8043;DHT22;4064;48.132;11.366;2023-01-08T14:32:23;7.90;97.90
8043;DHT22;4064;48.132;11.366;2023-01-08T14:34:51;7.90;97.70
8043;DHT22;4064;48.132;11.366;2023-01-08T14:37:18;8.00;97.90
8043;DHT22;4064;48.132;11.366;2023-01-08T14:39:45;7.90;97.90
8043;DHT22;4064;48.132;11.366;2023-01-08T14:42:22;7.90;98.10
8043;DHT22;4064;48.132;11.366;2023-01-08T14:47:48;7.90;98.40
8043;DHT22;4064;48.132;11.366;2023-01-08T14:50:23;7.90;98.50
8043;DHT22;4064;48.132;11.366;2023-01-08T14:52:51;7.90;98.70
8043;DHT22;4064;48.132;11.366;2023-01-08T14:55:19;7.90;99.10
8043;DHT22;4064;48.132;11.366;2023-01-08T14:57:47;7.90;99.60
8043;DHT22;4064;48.132;11.366;2023-01-08T15:00:31;7.80;99.90
8043;DHT22;4064;48.132;11.366;2023-01-08T15:02:57;7.70;99.90
8043;DHT22;4064;48.132;11.366;2023-01-08T15:05:28;7.70;99.90
8043;DHT22;4064;48.132;11.366;2023-01-08T15:07:59;7.70;99.90
8043;DHT22;4064;48.132;11.366;2023-01-08T15:10:36;7.70;99.90
8043;DHT22;4064;48.132;11.366;2023-01-08T15:13:02;7.60;99.90
8043;DHT22;4064;48.132;11.366;2023-01-08T15:15:33;7.60;99.90
8043;DHT22;4064;48.132;11.366;2023-01-08T15:18:00;7.50;99.90
8043;DHT22;4064;48.132;11.366;2023-01-08T15:20:29;7.50;99.90
8043;DHT22;4064;48.132;11.366;2023-01-08T15:22:58;7.40;99.90
8043;DHT22;4064;48.132;11.366;2023-01-08T15:25:28;7.40;99.90
8043;DHT22;4064;48.132;11.366;2023-01-08T15:27:58;7.30;99.90
8043;DHT22;4064;48.132;11.366;2023-01-08T15:30:33;7.20;99.90
8043;DHT22;4064;48.132;11.366;2023-01-08T15:33:08;7.20;99.90
8043;DHT22;4064;48.132;11.366;2023-01-08T15:35:40;7.10;99.90
8043;DHT22;4064;48.132;11.366;2023-01-08T15:38:05;7.10;99.90
8043;DHT22;4064;48.132;11.366;2023-01-08T15:40:31;7.00;99.90
8043;DHT22;4064;48.132;11.366;2023-01-08T15:42:57;7.00;99.90
8043;DHT22;4064;48.132;11.366;2023-01-08T15:45:35;7.00;99.90
8043;DHT22;4064;48.132;11.366;2023-01-08T15:48:02;6.90;99.90
8043;DHT22;4064;48.132;11.366;2023-01-08T15:50:28;6.80;99.90
8043;DHT22;4064;48.132;11.366;2023-01-08T15:52:56;6.80;99.90
8043;DHT22;4064;48.132;11.366;2023-01-08T15:55:23;6.70;99.90
8043;DHT22;4064;48.132;11.366;2023-01-08T15:57:49;6.70;99.90
8043;DHT22;4064;48.132;11.366;2023-01-08T16:00:17;6.60;99.90
8043;DHT22;4064;48.132;11.366;2023-01-08T16:02:48;6.60;99.90
8043;DHT22;4064;48.132;11.366;2023-01-08T16:05:17;6.50;99.90
8043;DHT22;4064;48.132;11.366;2023-01-08T16:07:43;6.50;99.90
8043;DHT22;4064;48.132;11.366;2023-01-08T16:10:13;6.40;99.90
8043;DHT22;4064;48.132;11.366;2023-01-08T16:12:39;6.40;99.90
8043;DHT22;4064;48.132;11.366;2023-01-08T16:15:05;6.40;99.90
8043;DHT22;4064;48.132;11.366;2023-01-08T16:17:33;6.30;99.90
8043;DHT22;4064;48.132;11.366;2023-01-08T16:19:59;6.20;99.90
8043;DHT22;4064;48.132;11.366;2023-01-08T16:22:25;6.20;99.90
8043;DHT22;4064;48.132;11.366;2023-01-08T16:24:51;6.10;99.90
8043;DHT22;4064;48.132;11.366;2023-01-08T16:27:16;6.10;99.90
8043;DHT22;4064;48.132;11.366;2023-01-08T16:29:42;6.00;99.90
8043;DHT22;4064;48.132;11.366;2023-01-08T16:32:08;6.00;99.90
8043;DHT22;4064;48.132;11.366;2023-01-08T16:34:33;6.00;99.90
8043;DHT22;4064;48.132;11.366;2023-01-08T16:36:59;6.00;99.90
8043;DHT22;4064;48.132;11.366;2023-01-08T16:39:24;5.90;99.90
8043;DHT22;4064;48.132;11.366;2023-01-08T16:41:51;5.90;99.90
8043;DHT22;4064;48.132;11.366;2023-01-08T16:44:22;5.90;99.90
8043;DHT22;4064;48.132;11.366;2023-01-08T16:46:48;5.80;99.90
8043;DHT22;4064;48.132;11.366;2023-01-08T16:49:14;5.70;99.90
8043;DHT22;4064;48.132;11.366;2023-01-08T16:51:39;5.70;99.90
8043;DHT22;4064;48.132;11.366;2023-01-08T16:54:05;5.70;99.90
8043;DHT22;4064;48.132;11.366;2023-01-08T16:56:31;5.70;99.90
8043;DHT22;4064;48.132;11.366;2023-01-08T16:58:57;5.60;99.90
8043;DHT22;4064;48.132;11.366;2023-01-08T17:01:22;5.60;99.90
8043;DHT22;4064;48.132;11.366;2023-01-08T17:03:49;5.50;99.90
8043;DHT22;4064;48.132;11.366;2023-01-08T17:06:15;5.40;99.90
8043;DHT22;4064;48.132;11.366;2023-01-08T17:08:41;5.30;99.90
8043;DHT22;4064;48.132;11.366;2023-01-08T17:11:15;5.20;99.90
8043;DHT22;4064;48.132;11.366;2023-01-08T17:13:41;5.10;99.90
8043;DHT22;4064;48.132;11.366;2023-01-08T17:16:09;4.90;99.90
8043;DHT22;4064;48.132;11.366;2023-01-08T17:18:35;4.90;99.90
8043;DHT22;4064;48.132;11.366;2023-01-08T17:21:00;4.90;99.90
8043;DHT22;4064;48.132;11.366;2023-01-08T17:23:26;4.80;99.90
8043;DHT22;4064;48.132;11.366;2023-01-08T17:25:54;4.70;99.90
8043;DHT22;4064;48.132;11.366;2023-01-08T17:28:21;4.80;99.90